Ayden, North Carolina
Current Conditions -  °F | °C
As of 11:55 AM on Sunday 23 Nov 2014 (Local Time) from KPGV Reporting Station
Drizzle Drizzle  
Wind Chill: 55°   Ceiling: Unl
Heat Index: 55°   Visibility: 10mi
Dew Point: 45°   Wind: 0mph
Humidity: 67%   Direction: NA
Pressure: 30.19"   Gusts: NA
Location:  35.47°N, 77.42°W
Report Text: KPGV 231655Z AUTO 00000KT 10SM -DZ SCT038 SCT060 13/07 A3019 RMK AO2
Loading
Personal Weather Stations






























Interactive Weather Map New forecast layout! Learn more

10-Day Weather Forecast

Advertisements
Track Severe Weather on mobile